Time;durP1;ratioP1;P1;durP2;ratioP2;P2;SDS_P1;SDS_P2;PMS_P1;PMS_P2;Temp;Humidity;BMP_temperature;BMP_pressure;BME280_temperature;BME280_humidity;BME280_pressure;Samples;Min_cycle;Max_cycle;Signal;HPM_P1;HPM_P2
2022/06/20 00:01:57;;;;;;;10.98;3.20;;;;;;;14.98;70.18;98730.09;5050849;28;20045;-76
2022/06/20 00:04:23;;;;;;;12.02;3.05;;;;;;;14.98;70.28;98730.09;5021553;28;20076;-76
2022/06/20 00:06:49;;;;;;;14.10;3.03;;;;;;;15.00;69.68;98727.03;5006595;28;20045;-76
2022/06/20 00:09:16;;;;;;;10.35;3.22;;;;;;;15.02;68.88;98727.50;5025104;28;20556;-76
2022/06/20 00:11:46;;;;;;;9.65;3.15;;;;;;;14.97;68.81;98722.16;5024382;28;20080;-68
2022/06/20 00:14:14;;;;;;;10.73;3.38;;;;;;;14.93;69.23;98721.22;5025947;28;20049;-68
2022/06/20 00:16:42;;;;;;;12.43;3.08;;;;;;;14.86;69.86;98719.81;5026866;28;20718;-70
2022/06/20 00:19:09;;;;;;;8.52;2.90;;;;;;;14.81;70.30;98724.69;5026295;28;20072;-67
2022/06/20 00:21:36;;;;;;;11.48;3.35;;;;;;;14.77;70.98;98730.03;5024226;28;20049;-69
2022/06/20 00:24:02;;;;;;;12.23;3.37;;;;;;;14.70;71.50;98735.22;5027644;28;20141;-68
2022/06/20 00:26:28;;;;;;;12.30;3.53;;;;;;;14.51;72.20;98733.63;5022273;28;20115;-67
2022/06/20 00:28:56;;;;;;;13.65;3.10;;;;;;;14.32;72.55;98731.25;5026071;28;20045;-69
2022/06/20 00:31:22;;;;;;;10.02;2.95;;;;;;;14.18;72.34;98724.00;5043659;28;20139;-76
2022/06/20 00:33:50;;;;;;;16.23;2.90;;;;;;;14.09;72.20;98730.63;5044778;28;20049;-76
2022/06/20 00:36:16;;;;;;;;;;;;;;;14.04;71.50;98718.66;5033626;28;20053;-75
2022/06/20 00:38:44;;;;;;;14.45;2.95;;;;;;;14.03;71.83;98721.75;5023655;28;19925;-77
2022/06/20 00:41:15;;;;;;;19.13;3.10;;;;;;;14.06;71.68;98720.28;5007530;28;20056;-75
2022/06/20 00:43:45;;;;;;;9.68;2.70;;;;;;;14.08;72.00;98718.81;5025173;28;20088;-77
2022/06/20 00:46:34;;;;;;;11.68;2.85;;;;;;;14.09;71.19;98705.91;5026401;28;20104;-76
2022/06/20 00:49:25;;;;;;;14.52;3.60;;;;;;;14.02;70.17;98687.16;5026426;28;20056;-77
2022/06/20 00:52:14;;;;;;;11.63;2.53;;;;;;;14.03;70.67;98688.75;5027727;28;20559;-76
2022/06/20 00:55:03;;;;;;;16.95;3.20;;;;;;;14.05;71.03;98708.47;5025503;28;20099;-77
2022/06/20 00:57:53;;;;;;;10.50;3.10;;;;;;;14.05;71.34;98708.47;5033605;28;20083;-76
2022/06/20 01:00:39;;;;;;;8.02;2.80;;;;;;;14.05;71.33;98708.47;5045235;28;20475;-77
2022/06/20 01:03:27;;;;;;;10.20;3.10;;;;;;;14.03;71.41;98713.50;5046721;28;20535;-76
2022/06/20 01:06:19;;;;;;;10.82;2.90;;;;;;;14.02;72.16;98734.66;5043961;28;20175;-77
2022/06/20 01:09:06;;;;;;;12.52;3.10;;;;;;;13.98;72.40;98747.44;5032636;28;20060;-76
2022/06/20 01:11:53;;;;;;;12.63;3.72;;;;;;;13.92;73.06;98743.25;5027095;28;20056;-76
2022/06/20 01:14:38;;;;;;;10.02;3.95;;;;;;;13.89;73.81;98738.38;5023578;28;20061;-76
2022/06/20 01:17:28;;;;;;;13.75;3.65;;;;;;;13.76;75.09;98734.66;5012330;28;20069;-76
2022/06/20 01:20:21;;;;;;;9.55;3.50;;;;;;;13.81;75.74;98730.94;5023210;28;20072;-76
2022/06/20 01:23:13;;;;;;;12.07;3.30;;;;;;;13.78;76.16;98726.91;5021990;28;20072;-67
2022/06/20 01:26:17;;;;;;;14.05;3.55;;;;;;;13.79;76.20;98730.47;5025797;28;20134;-69
2022/06/20 01:29:07;;;;;;;10.82;3.80;;;;;;;13.87;76.39;98738.72;5022435;28;20052;-69
2022/06/20 01:31:55;;;;;;;13.15;4.20;;;;;;;13.93;75.94;98741.28;5025232;28;20056;-69
2022/06/20 01:34:41;;;;;;;9.50;2.95;;;;;;;13.92;74.85;98735.00;5022821;28;20060;-69
2022/06/20 01:37:29;;;;;;;12.23;3.60;;;;;;;13.89;74.46;98743.88;5023656;28;20103;-69
2022/06/20 01:40:15;;;;;;;9.98;2.95;;;;;;;13.91;74.39;98752.63;5023939;28;20479;-68
2022/06/20 01:43:00;;;;;;;12.60;3.22;;;;;;;13.87;73.82;98735.97;5023336;28;20094;-69
2022/06/20 01:45:58;;;;;;;15.50;3.35;;;;;;;13.85;74.08;98740.97;5022896;28;20068;-69
2022/06/20 01:48:49;;;;;;;17.17;3.35;;;;;;;13.78;74.14;98737.09;5020213;28;20055;-68
2022/06/20 01:51:41;;;;;;;15.98;3.17;;;;;;;13.81;74.57;98726.25;5023782;28;20326;-69
2022/06/20 01:54:30;;;;;;;10.95;2.83;;;;;;;13.86;73.88;98712.38;5024702;28;20091;-69
2022/06/20 01:57:17;;;;;;;9.48;2.85;;;;;;;13.81;74.38;98717.22;5021445;28;20060;-68
2022/06/20 02:00:06;;;;;;;8.88;3.10;;;;;;;13.77;74.70;98705.25;5019373;28;20231;-70
2022/06/20 02:02:56;;;;;;;14.30;3.33;;;;;;;13.73;75.12;98707.84;5040275;28;20067;-69
2022/06/20 02:05:44;;;;;;;11.05;3.42;;;;;;;13.69;75.34;98685.69;5045533;28;20079;-76
2022/06/20 02:08:31;;;;;;;15.85;3.28;;;;;;;13.67;75.61;98695.41;5041585;28;20084;-76
2022/06/20 02:11:21;;;;;;;11.93;3.38;;;;;;;13.60;76.01;98702.16;5042562;28;20162;-77
2022/06/20 02:14:11;;;;;;;16.40;4.47;;;;;;;13.66;76.33;98702.00;5022279;28;20056;-75
2022/06/20 02:17:02;;;;;;;11.40;2.97;;;;;;;13.69;76.13;98721.41;5022476;28;20056;-75
2022/06/20 02:19:51;;;;;;;15.18;4.15;;;;;;;13.59;76.44;98705.25;5023491;28;20089;-69
2022/06/20 02:22:38;;;;;;;15.20;4.32;;;;;;;13.51;76.97;98722.53;5019912;28;20075;-78
2022/06/20 02:25:29;;;;;;;14.93;4.13;;;;;;;13.56;77.25;98730.59;5020992;28;20114;-70
2022/06/20 02:28:20;;;;;;;10.15;3.53;;;;;;;13.47;77.18;98739.63;5022507;28;20064;-69
2022/06/20 02:31:07;;;;;;;19.27;3.92;;;;;;;13.29;77.35;98724.22;5023408;28;20397;-70
2022/06/20 02:33:54;;;;;;;11.82;4.25;;;;;;;13.19;79.07;98742.59;5021961;28;20115;-69
2022/06/20 02:36:40;;;;;;;13.32;3.80;;;;;;;13.12;80.34;98723.06;5019795;28;20608;-69
2022/06/20 02:39:25;;;;;;;12.63;4.05;;;;;;;13.11;80.80;98715.97;5021444;28;20057;-67
2022/06/20 02:42:14;;;;;;;17.83;4.28;;;;;;;13.07;80.80;98701.22;5024530;28;20057;-69
2022/06/20 02:45:01;;;;;;;11.77;4.63;;;;;;;13.05;81.02;98676.88;5023802;28;20126;-69
2022/06/20 02:47:54;;;;;;;18.35;4.05;;;;;;;13.16;80.71;98682.03;5021029;28;20591;-69
2022/06/20 02:50:44;;;;;;;15.93;4.32;;;;;;;13.30;80.68;98674.50;5021746;28;20058;-67
2022/06/20 02:53:38;;;;;;;16.00;4.00;;;;;;;13.41;79.63;98660.47;5007245;28;20076;-68
2022/06/20 02:56:26;;;;;;;15.57;3.83;;;;;;;13.39;79.75;98663.50;5021201;28;20973;-68
2022/06/20 02:59:17;;;;;;;12.13;4.43;;;;;;;13.46;79.45;98672.13;5025563;28;20056;-69
2022/06/20 03:02:06;;;;;;;14.13;4.05;;;;;;;13.52;78.84;98682.94;5019446;28;20056;-69
2022/06/20 03:04:51;;;;;;;14.93;4.63;;;;;;;13.45;78.80;98706.22;5023801;28;20108;-70
2022/06/20 03:07:37;;;;;;;13.07;4.50;;;;;;;13.43;79.22;98702.13;5021035;28;20051;-68
2022/06/20 03:10:28;;;;;;;16.58;4.20;;;;;;;13.43;79.26;98699.38;5024654;28;20581;-69
2022/06/20 03:13:15;;;;;;;15.07;4.50;;;;;;;13.50;79.21;98683.25;5027056;28;20056;-67
2022/06/20 03:16:02;;;;;;;13.55;4.65;;;;;;;13.64;78.75;98663.91;5026558;28;20067;-69
2022/06/20 03:18:49;;;;;;;17.55;4.45;;;;;;;13.77;77.24;98642.09;5026387;28;20539;-69
2022/06/20 03:21:37;;;;;;;14.70;4.15;;;;;;;13.85;76.66;98653.06;5027458;28;20060;-70
2022/06/20 03:24:24;;;;;;;14.75;4.57;;;;;;;13.86;75.94;98673.09;5026234;28;20080;-68
2022/06/20 03:27:14;;;;;;;18.15;5.28;;;;;;;13.87;76.68;98691.19;5029009;28;20064;-69
2022/06/20 03:30:04;;;;;;;14.82;4.82;;;;;;;13.84;76.31;98691.84;5025560;28;20099;-67
2022/06/20 03:32:49;;;;;;;19.95;4.68;;;;;;;13.88;75.97;98681.81;5027861;28;20061;-69
2022/06/20 03:35:35;;;;;;;16.05;4.13;;;;;;;13.85;75.66;98674.22;5024609;28;20048;-69
2022/06/20 03:38:21;;;;;;;15.40;4.82;;;;;;;13.87;76.10;98670.03;5040621;28;20060;-69
2022/06/20 03:41:07;;;;;;;18.40;3.90;;;;;;;13.74;76.03;98668.25;5046103;28;20119;-69
2022/06/20 03:43:58;;;;;;;13.68;4.32;;;;;;;13.70;76.28;98690.06;5029757;28;20119;-70
2022/06/20 03:46:48;;;;;;;24.27;4.57;;;;;;;13.74;75.90;98687.47;5045564;28;20055;-69
2022/06/20 03:49:39;;;;;;;20.90;4.70;;;;;;;13.70;76.06;98690.06;5026394;28;20725;-69
2022/06/20 03:52:29;;;;;;;17.65;4.45;;;;;;;13.75;76.21;98694.59;5024643;28;20800;-69
2022/06/20 03:55:18;;;;;;;21.67;4.60;;;;;;;13.77;76.36;98700.56;5023851;28;20052;-69
2022/06/20 03:58:10;;;;;;;15.02;4.50;;;;;;;13.73;76.19;98724.31;5024449;28;20373;-69
2022/06/20 04:01:01;;;;;;;19.00;4.85;;;;;;;13.68;76.49;98752.75;5024389;28;20060;-69
2022/06/20 04:03:53;;;;;;;20.00;4.65;;;;;;;13.68;76.30;98683.28;5023781;28;20146;-70
2022/06/20 04:06:41;;;;;;;27.90;5.10;;;;;;;13.81;76.18;98673.25;5027774;28;20091;-69
2022/06/20 04:12:42;;;;;;;17.27;4.80;;;;;;;13.87;74.91;98670.03;5042645;28;20136;-69
2022/06/20 04:15:31;;;;;;;20.17;5.05;;;;;;;13.87;75.31;98680.19;5041880;28;20708;-70
2022/06/20 04:18:29;;;;;;;15.57;4.88;;;;;;;13.86;75.29;98675.84;5046286;28;20060;-69
2022/06/20 04:21:21;;;;;;;18.52;4.60;;;;;;;13.88;75.42;98695.53;5042073;28;20594;-69
2022/06/20 04:24:17;;;;;;;20.17;5.45;;;;;;;13.96;74.81;98699.41;5031273;28;20488;-69
2022/06/20 04:27:06;;;;;;;14.80;4.50;;;;;;;14.00;74.98;98697.66;5033838;28;20640;-69
2022/06/20 04:30:01;;;;;;;18.85;5.03;;;;;;;14.05;74.64;98675.50;5032520;28;20140;-69
2022/06/20 04:32:51;;;;;;;13.80;4.20;;;;;;;14.14;74.24;98670.81;5029614;28;20059;-69
2022/06/20 04:35:42;;;;;;;19.45;5.13;;;;;;;14.30;73.72;98673.03;5046497;28;20086;-69
2022/06/20 04:38:34;;;;;;;22.27;4.70;;;;;;;14.38;73.00;98674.16;5043742;28;20117;-70
2022/06/20 04:41:25;;;;;;;17.10;4.45;;;;;;;14.42;72.27;98692.41;5043697;28;20531;-70
2022/06/20 04:44:17;;;;;;;12.57;3.97;;;;;;;14.43;72.02;98696.75;5034630;28;20111;-76
2022/06/20 04:47:21;;;;;;;17.48;4.35;;;;;;;14.48;71.73;98704.03;5031012;28;20103;-70
2022/06/20 04:50:13;;;;;;;16.25;4.53;;;;;;;14.49;71.78;98700.16;5024006;28;20102;-69
2022/06/20 04:53:08;;;;;;;17.90;4.55;;;;;;;14.61;71.51;98682.97;5024163;28;20339;-69
2022/06/20 04:55:57;;;;;;;16.00;4.50;;;;;;;14.79;70.70;98666.44;5022004;28;20130;-71
2022/06/20 04:58:47;;;;;;;18.50;4.45;;;;;;;14.78;70.35;98668.34;5024942;28;20467;-70
2022/06/20 05:01:36;;;;;;;15.73;4.35;;;;;;;14.88;70.40;98681.75;5025686;28;20107;-71
2022/06/20 05:04:31;;;;;;;29.10;5.10;;;;;;;14.90;69.93;98673.16;5033999;28;20186;-70
2022/06/20 05:07:20;;;;;;;10.95;4.28;;;;;;;15.05;70.32;98680.06;5044284;28;20067;-70
2022/06/20 05:10:14;;;;;;;20.90;4.20;;;;;;;15.25;68.98;98667.47;5036349;28;20852;-70
2022/06/20 05:13:04;;;;;;;19.67;4.88;;;;;;;15.32;68.72;98691.72;5031864;28;20056;-70
2022/06/20 05:15:50;;;;;;;21.40;5.97;;;;;;;15.26;68.71;98693.88;5035484;28;20511;-70
2022/06/20 05:18:39;;;;;;;17.52;5.32;;;;;;;15.15;69.54;98690.69;5043301;28;20075;-70
2022/06/20 05:21:28;;;;;;;18.48;4.80;;;;;;;15.14;69.51;98697.34;5044142;28;20095;-70
2022/06/20 05:24:16;;;;;;;23.55;5.50;;;;;;;15.07;69.53;98718.28;5035136;28;20444;-70
2022/06/20 05:27:17;;;;;;;19.02;4.53;;;;;;;14.83;69.80;98708.66;5024661;28;20068;-70
2022/06/20 05:30:07;;;;;;;22.50;4.70;;;;;;;14.78;70.24;98715.13;5025766;28;20068;-78
2022/06/20 05:33:00;;;;;;;25.10;4.82;;;;;;;14.91;69.79;98715.25;5010351;28;20200;-77
2022/06/20 05:35:51;;;;;;;23.05;5.40;;;;;;;14.78;70.23;98726.13;5023200;28;20479;-77
2022/06/20 05:38:23;;;;;;;23.73;5.47;;;;;;;14.87;70.17;98728.84;5007898;28;20432;-77
2022/06/20 05:40:53;;;;;;;19.30;4.45;;;;;;;14.83;70.30;98727.91;5026285;28;20623;-77
2022/06/20 05:43:20;;;;;;;25.67;4.80;;;;;;;14.84;70.01;98762.53;5024822;28;20053;-70
2022/06/20 05:45:50;;;;;;;20.85;4.97;;;;;;;14.68;70.12;98767.75;5023805;28;20069;-71
2022/06/20 05:48:17;;;;;;;20.17;4.53;;;;;;;14.55;71.08;98781.34;5025586;28;20052;-77
2022/06/20 05:50:47;;;;;;;;;;;;;;;14.49;71.24;98779.91;5022760;28;20547;-78
2022/06/20 05:53:23;;;;;;;21.75;4.30;;;;;;;14.48;71.09;98785.75;5025237;28;20299;-77
2022/06/20 05:55:51;;;;;;;31.02;6.03;;;;;;;14.43;70.99;98779.25;5027709;28;20536;-71
2022/06/20 05:58:18;;;;;;;;;;;;;;;14.41;71.47;98783.47;5023769;28;20064;-70
2022/06/20 06:00:47;;;;;;;25.15;4.85;;;;;;;14.42;71.18;98785.09;5031220;28;19944;-70
2022/06/20 06:03:26;;;;;;;24.61;5.02;;;;;;;14.51;71.11;98787.84;4532925;28;10002883;-70
2022/06/20 06:05:57;;;;;;;21.08;4.05;;;;;;;14.56;70.41;98787.66;5039470;28;20124;-71
2022/06/20 06:08:27;;;;;;;23.02;4.68;;;;;;;14.52;69.93;98775.69;5029399;28;20059;-76
2022/06/20 06:10:59;;;;;;;17.33;4.65;;;;;;;14.58;70.23;98768.88;5034957;28;20536;-76
2022/06/20 06:13:42;;;;;;;26.65;4.72;;;;;;;14.71;70.19;98761.59;5024648;28;20515;-76
2022/06/20 06:19:07;;;;;;;18.02;4.70;;;;;;;14.98;69.20;98762.31;5016870;28;20059;-77
2022/06/20 06:21:35;;;;;;;40.65;6.32;;;;;;;15.15;68.64;98759.53;5025226;28;20095;-70
2022/06/20 06:24:04;;;;;;;26.40;5.85;;;;;;;15.35;67.65;98754.41;5028862;28;20643;-71
2022/06/20 06:26:31;;;;;;;18.70;4.40;;;;;;;15.52;66.63;98747.97;5026150;28;20536;-76
2022/06/20 06:28:57;;;;;;;30.20;4.88;;;;;;;15.86;65.37;98743.38;5025996;28;20128;-76
2022/06/20 06:31:31;;;;;;;31.88;4.47;;;;;;;16.33;63.32;98758.09;5036768;28;20164;-78
2022/06/20 06:34:04;;;;;;;14.75;4.20;;;;;;;16.61;62.30;98738.16;5036482;28;20048;-77
2022/06/20 06:36:39;;;;;;;26.63;5.38;;;;;;;16.86;62.19;98711.44;5033091;28;20057;-76
2022/06/20 06:39:14;;;;;;;20.60;4.28;;;;;;;17.19;61.07;98706.16;5029605;28;20127;-77
2022/06/20 06:41:45;;;;;;;23.77;4.93;;;;;;;17.53;60.30;98729.72;5026583;28;20057;-77
2022/06/20 06:44:30;;;;;;;21.48;4.72;;;;;;;17.69;58.65;98734.53;5016965;28;20102;-70
2022/06/20 06:46:59;;;;;;;23.17;4.40;;;;;;;17.81;57.96;98734.50;5022844;28;20288;-69
2022/06/20 06:49:34;;;;;;;27.92;4.68;;;;;;;18.06;56.79;98741.94;5029765;28;20110;-69
2022/06/20 06:52:07;;;;;;;29.63;5.63;;;;;;;18.05;56.50;98737.56;5027954;28;20037;-70
2022/06/20 06:54:51;;;;;;;24.73;4.70;;;;;;;18.28;56.14;98735.88;5033513;28;20073;-71
2022/06/20 06:57:21;;;;;;;25.55;5.20;;;;;;;18.49;55.88;98734.84;5036816;28;20086;-70
2022/06/20 06:59:52;;;;;;;24.92;4.60;;;;;;;18.69;54.89;98746.03;5035743;28;20489;-70
2022/06/20 07:02:21;;;;;;;27.85;5.65;;;;;;;18.85;54.21;98743.28;5032185;28;20053;-77
2022/06/20 07:04:54;;;;;;;23.17;5.10;;;;;;;18.97;54.02;98745.16;5019595;28;20080;-77
2022/06/20 07:07:25;;;;;;;17.27;5.32;;;;;;;19.13;52.96;98745.19;5033327;28;20056;-77
2022/06/20 07:09:55;;;;;;;31.85;5.25;;;;;;;19.20;52.11;98758.41;5039519;28;20052;-76
2022/06/20 07:12:27;;;;;;;30.58;4.65;;;;;;;19.22;51.71;98753.31;5024705;28;20835;-69
2022/06/20 07:15:02;;;;;;;22.30;5.03;;;;;;;19.08;51.23;98762.91;5029303;28;20045;-70
2022/06/20 07:17:38;;;;;;;45.53;5.63;;;;;;;19.00;51.63;98761.09;5032600;28;20623;-68
2022/06/20 07:20:05;;;;;;;45.15;6.28;;;;;;;19.19;51.55;98756.78;5039694;28;20045;-70
2022/06/20 07:22:32;;;;;;;55.65;7.90;;;;;;;19.45;50.97;98759.03;5040556;28;20045;-71
2022/06/20 07:24:58;;;;;;;25.10;4.87;;;;;;;19.55;50.34;98752.91;5037545;28;20041;-71
2022/06/20 07:27:30;;;;;;;22.95;4.88;;;;;;;19.32;49.93;98766.63;5031435;28;20064;-70
2022/06/20 07:30:02;;;;;;;22.65;4.45;;;;;;;18.81;51.35;98772.81;5042466;28;20053;-71
2022/06/20 07:32:37;;;;;;;26.10;4.22;;;;;;;18.64;51.77;98765.69;5036271;28;20057;-70
2022/06/20 07:35:09;;;;;;;21.17;3.83;;;;;;;18.83;51.55;98760.25;5019687;28;20519;-70
2022/06/20 07:37:41;;;;;;;27.98;4.75;;;;;;;18.97;51.13;98773.69;5038736;28;20447;-69
2022/06/20 07:40:12;;;;;;;23.67;4.07;;;;;;;18.95;50.96;98761.34;5039998;28;20079;-70
2022/06/20 07:42:44;;;;;;;20.73;4.30;;;;;;;18.88;51.29;98769.44;5036673;28;20456;-70
2022/06/20 07:45:16;;;;;;;30.08;4.22;;;;;;;18.90;51.83;98764.38;5030484;28;20488;-70
2022/06/20 07:47:48;;;;;;;21.40;4.10;;;;;;;18.99;51.58;98771.38;5040000;28;20052;-72
2022/06/20 07:50:21;;;;;;;23.02;4.57;;;;;;;19.12;51.12;98772.09;5042570;28;20114;-69
2022/06/20 07:52:55;;;;;;;23.25;4.63;;;;;;;19.12;51.34;98774.84;5040209;28;20045;-76
2022/06/20 07:55:26;;;;;;;23.70;4.15;;;;;;;19.34;50.55;98769.03;5037137;28;20577;-77
2022/06/20 07:57:58;;;;;;;26.30;5.15;;;;;;;19.34;49.59;98769.81;5038980;28;20140;-77
2022/06/20 08:00:28;;;;;;;21.13;3.65;;;;;;;19.17;50.44;98768.25;5042050;28;20064;-77
2022/06/20 08:03:02;;;;;;;28.70;3.95;;;;;;;19.31;49.88;98765.00;5041775;28;20045;-79
2022/06/20 08:05:35;;;;;;;22.60;4.28;;;;;;;19.00;50.35;98769.41;5027538;28;20056;-78
2022/06/20 08:08:09;;;;;;;20.92;3.50;;;;;;;18.92;50.36;98760.06;5043527;28;20346;-77
2022/06/20 08:10:42;;;;;;;19.42;3.83;;;;;;;19.01;50.75;98795.16;5026345;28;20496;-77
2022/06/20 08:13:15;;;;;;;14.98;3.75;;;;;;;19.17;50.26;98792.38;5040707;28;20033;-76
2022/06/20 08:15:46;;;;;;;16.85;3.90;;;;;;;19.18;50.33;98791.19;5045714;28;20319;-77
2022/06/20 08:18:14;;;;;;;22.52;3.53;;;;;;;19.69;48.99;98790.44;5024767;28;20065;-75
2022/06/20 08:20:48;;;;;;;14.95;4.00;;;;;;;20.82;45.85;98777.75;5027962;28;20087;-77
2022/06/20 08:23:23;;;;;;;15.43;3.60;;;;;;;21.73;42.94;98781.22;5013532;28;20040;-76
2022/06/20 08:25:55;;;;;;;15.63;3.65;;;;;;;21.66;42.20;98773.56;5044232;28;20053;-77
2022/06/20 08:28:28;;;;;;;22.40;3.65;;;;;;;21.18;43.80;98773.97;5042513;28;20056;-70
2022/06/20 08:31:01;;;;;;;29.70;3.92;;;;;;;20.90;45.13;98780.63;5041649;28;20045;-77
2022/06/20 08:33:37;;;;;;;24.77;4.00;;;;;;;20.63;45.64;98780.53;5035385;28;20044;-70
2022/06/20 08:36:11;;;;;;;16.88;3.35;;;;;;;21.24;43.17;98772.50;5038866;28;20072;-77
2022/06/20 08:38:45;;;;;;;16.65;3.35;;;;;;;21.90;42.09;98777.88;5046753;28;20068;-76
2022/06/20 08:41:41;;;;;;;24.65;3.97;;;;;;;21.99;42.03;98783.16;5031216;28;20080;-72
2022/06/20 08:44:50;;;;;;;21.25;4.10;;;;;;;22.61;39.58;98768.00;5043479;28;20067;-71
2022/06/20 08:47:45;;;;;;;27.20;3.80;;;;;;;23.03;38.77;98781.97;4982833;28;20061;-71
2022/06/20 08:50:49;;;;;;;17.02;3.78;;;;;;;23.50;38.13;98785.97;4976884;28;20125;-70
2022/06/20 08:53:48;;;;;;;31.80;4.85;;;;;;;24.35;36.56;98774.88;4982318;28;20171;-70
2022/06/20 08:56:37;;;;;;;26.55;3.55;;;;;;;24.18;34.09;98772.81;4961009;28;20054;-76
2022/06/20 08:59:14;;;;;;;17.02;3.03;;;;;;;23.42;34.37;98769.56;4951957;28;20085;-77
2022/06/20 09:01:53;;;;;;;19.02;3.25;;;;;;;23.23;35.34;98763.81;4980531;28;20137;-71
2022/06/20 09:04:56;;;;;;;12.52;3.20;;;;;;;23.87;34.42;98749.91;4959384;28;20100;-70
2022/06/20 09:07:58;;;;;;;19.13;3.30;;;;;;;24.47;32.86;98758.94;4975542;28;20054;-70
2022/06/20 09:10:48;;;;;;;20.13;3.15;;;;;;;24.53;32.46;98765.75;4977421;28;20196;-71
2022/06/20 09:14:05;;;;;;;22.48;4.28;;;;;;;24.45;32.08;98784.47;4618226;28;10001195;-71
2022/06/20 09:16:41;;;;;;;17.70;3.95;;;;;;;24.52;32.38;98769.72;4965483;28;20494;-70
2022/06/20 09:19:24;;;;;;;18.25;3.10;;;;;;;24.77;31.44;98767.03;5039805;28;20067;-71
2022/06/20 09:21:57;;;;;;;25.38;3.67;;;;;;;24.23;31.44;98782.81;5022307;28;20052;-70
2022/06/20 09:24:36;;;;;;;14.30;2.90;;;;;;;23.51;32.21;98778.38;5037397;28;20040;-77
2022/06/20 09:27:09;;;;;;;22.60;2.80;;;;;;;23.36;33.00;98788.63;5034159;28;20056;-71
2022/06/20 09:30:00;;;;;;;10.80;2.60;;;;;;;23.35;32.93;98787.03;5039230;28;20059;-71
2022/06/20 09:33:01;;;;;;;19.05;3.25;;;;;;;23.57;32.10;98764.88;5051848;28;20063;-70
2022/06/20 09:35:47;;;;;;;19.20;3.80;;;;;;;23.44;32.22;98779.13;5037813;28;20462;-70
2022/06/20 09:38:35;;;;;;;17.15;3.33;;;;;;;23.73;32.38;98770.16;5037510;28;20057;-70
2022/06/20 09:41:09;;;;;;;10.23;3.17;;;;;;;23.89;31.56;98762.28;5014224;28;20053;-70
2022/06/20 09:43:44;;;;;;;22.60;4.07;;;;;;;24.15;31.70;98754.84;5027807;28;20072;-70
2022/06/20 09:46:19;;;;;;;16.63;3.45;;;;;;;24.13;31.25;98762.03;5037268;28;20096;-71
2022/06/20 09:48:52;;;;;;;21.83;3.85;;;;;;;23.77;31.21;98766.19;5035777;28;20141;-77
2022/06/20 09:51:32;;;;;;;15.02;3.50;;;;;;;22.94;31.72;98773.91;5023073;28;20048;-77
2022/06/20 09:54:06;;;;;;;15.85;3.25;;;;;;;22.43;32.40;98775.34;5050060;28;20629;-76
2022/06/20 09:56:41;;;;;;;18.42;2.65;;;;;;;22.43;32.51;98769.78;5040898;28;20069;-77
2022/06/20 09:59:22;;;;;;;19.15;3.10;;;;;;;22.57;32.87;98767.19;5036884;28;20059;-77
2022/06/20 10:01:57;;;;;;;18.45;2.67;;;;;;;22.46;32.87;98778.16;5030752;28;20438;-70
2022/06/20 10:04:31;;;;;;;14.85;3.03;;;;;;;22.36;33.02;98770.50;5036676;28;20045;-72
2022/06/20 10:07:05;;;;;;;16.45;2.63;;;;;;;22.43;33.30;98784.47;5035197;28;20073;-77
2022/06/20 10:09:40;;;;;;;16.10;2.60;;;;;;;22.50;33.61;98781.00;5037003;28;20122;-77
2022/06/20 10:12:14;;;;;;;20.02;2.97;;;;;;;22.36;33.64;98778.84;5046425;28;20045;-77
2022/06/20 10:14:50;;;;;;;21.40;3.05;;;;;;;22.47;33.97;98776.19;5038638;28;20490;-70
2022/06/20 10:17:24;;;;;;;12.05;2.65;;;;;;;22.71;32.59;98774.06;5036293;28;20052;-71
2022/06/20 10:20:01;;;;;;;11.13;2.65;;;;;;;22.58;32.12;98776.31;5039254;28;20053;-71
2022/06/20 10:22:37;;;;;;;17.95;2.80;;;;;;;22.47;32.44;98771.44;5032825;28;20536;-71
2022/06/20 10:25:27;;;;;;;12.75;2.33;;;;;;;22.21;32.80;98775.88;5036661;28;20041;-70
2022/06/20 10:28:03;;;;;;;15.13;2.38;;;;;;;21.90;32.93;98766.75;5025152;28;20060;-70
2022/06/20 10:30:45;;;;;;;16.80;3.05;;;;;;;22.10;33.07;98786.88;5021338;28;20475;-70
2022/06/20 10:33:27;;;;;;;13.25;2.65;;;;;;;22.20;33.02;98787.38;5021225;28;20053;-71
2022/06/20 10:36:04;;;;;;;14.60;2.40;;;;;;;22.14;33.38;98791.69;5040579;28;20055;-78
2022/06/20 10:38:40;;;;;;;10.52;2.50;;;;;;;21.87;34.50;98789.75;5044130;28;20117;-78
2022/06/20 10:41:08;;;;;;;14.45;2.50;;;;;;;21.49;35.36;98791.53;5036584;28;20064;-77
2022/06/20 10:43:47;;;;;;;12.65;2.40;;;;;;;21.10;36.19;98782.19;5031475;28;20049;-77
2022/06/20 10:46:25;;;;;;;14.60;2.90;;;;;;;20.82;37.02;98794.41;5042436;28;20126;-77
2022/06/20 10:49:25;;;;;;;23.85;2.70;;;;;;;20.65;36.92;98792.84;5039581;28;20596;-77
2022/06/20 10:52:02;;;;;;;14.00;2.25;;;;;;;20.79;37.07;98785.97;5036800;28;20204;-70
2022/06/20 10:54:39;;;;;;;18.55;3.40;;;;;;;20.97;36.46;98780.78;5038517;28;20601;-70
2022/06/20 10:57:16;;;;;;;19.42;2.63;;;;;;;20.89;36.84;98777.06;5032103;28;20451;-69
2022/06/20 10:59:53;;;;;;;14.85;2.80;;;;;;;20.76;37.19;98775.59;5037268;28;20045;-70
2022/06/20 11:02:43;;;;;;;26.10;3.67;;;;;;;20.71;36.25;98773.94;5031621;28;20044;-70
2022/06/20 11:05:20;;;;;;;27.15;3.83;;;;;;;20.90;36.34;98772.28;5043474;28;20045;-70
2022/06/20 11:07:55;;;;;;;33.10;3.22;;;;;;;21.18;36.14;98772.00;5022265;28;20044;-77
2022/06/20 11:10:44;;;;;;;16.90;2.65;;;;;;;21.50;35.58;98770.91;5023735;28;20052;-70
2022/06/20 11:13:22;;;;;;;10.73;2.30;;;;;;;21.95;34.68;98769.19;5030164;28;20049;-71
2022/06/20 11:15:57;;;;;;;13.07;2.58;;;;;;;22.37;34.81;98769.31;5033445;28;20037;-70
2022/06/20 11:18:42;;;;;;;19.35;3.20;;;;;;;23.08;33.60;98776.81;5035226;28;20495;-77
2022/06/20 11:21:17;;;;;;;12.88;2.78;;;;;;;23.09;33.12;98744.97;5047911;28;20055;-76
2022/06/20 11:23:51;;;;;;;11.07;2.30;;;;;;;22.98;33.47;98766.38;5047697;28;20532;-76
2022/06/20 11:26:27;;;;;;;13.75;2.58;;;;;;;22.39;34.51;98758.59;4679513;28;9999768;-77
2022/06/20 11:29:18;;;;;;;19.52;2.83;;;;;;;21.79;35.76;98772.16;5017797;28;20111;-76
2022/06/20 11:31:57;;;;;;;15.48;2.50;;;;;;;21.43;36.62;98771.59;5033398;28;20048;-76
2022/06/20 11:34:43;;;;;;;7.32;2.35;;;;;;;20.92;37.72;98767.19;5025818;28;20540;-77
2022/06/20 11:37:26;;;;;;;14.57;2.63;;;;;;;20.73;37.74;98774.34;5030336;28;20139;-69
2022/06/20 11:40:08;;;;;;;17.80;2.50;;;;;;;20.60;37.83;98765.41;5013023;28;20055;-75
2022/06/20 11:42:53;;;;;;;13.15;2.75;;;;;;;20.43;38.14;98772.19;5032116;28;20049;-76
2022/06/20 11:45:39;;;;;;;16.80;3.00;;;;;;;20.33;38.71;98770.03;5038383;28;20053;-76
2022/06/20 11:48:28;;;;;;;10.82;2.17;;;;;;;20.08;39.75;98764.75;5032185;28;20631;-76
2022/06/20 11:51:03;;;;;;;15.10;2.35;;;;;;;20.06;40.03;98769.88;5025977;28;20071;-69
2022/06/20 11:53:46;;;;;;;19.08;2.42;;;;;;;20.07;40.27;98757.63;5037648;28;20708;-70
2022/06/20 11:56:20;;;;;;;17.35;2.88;;;;;;;20.07;40.75;98775.06;5028388;28;20037;-70
2022/06/20 11:59:04;;;;;;;15.15;2.70;;;;;;;20.09;40.79;98764.41;5036311;28;20057;-70
2022/06/20 12:01:37;;;;;;;20.05;2.95;;;;;;;20.44;40.09;98771.03;5043366;28;20467;-76
2022/06/20 12:04:13;;;;;;;21.67;4.07;;;;;;;20.92;39.67;98767.19;5029479;28;20075;-76
2022/06/20 12:06:49;;;;;;;15.40;2.80;;;;;;;22.11;37.32;98765.41;5045292;28;20055;-77
2022/06/20 12:09:30;;;;;;;21.60;3.08;;;;;;;22.78;36.27;98758.22;5043186;28;20183;-77
2022/06/20 12:12:12;;;;;;;36.42;3.22;;;;;;;22.77;35.53;98759.41;5042822;28;20053;-76
2022/06/20 12:14:54;;;;;;;23.30;3.42;;;;;;;23.00;35.17;98764.00;5038412;28;20041;-76
2022/06/20 12:17:32;;;;;;;15.65;2.40;;;;;;;23.18;34.88;98764.19;5035792;28;20049;-76
2022/06/20 12:23:25;;;;;;;20.80;3.17;;;;;;;24.05;33.02;98755.63;4980923;28;20081;-70
2022/06/20 12:25:56;;;;;;;11.00;2.70;;;;;;;25.23;31.77;98753.47;5040732;28;20052;-71
2022/06/20 12:28:25;;;;;;;9.75;3.13;;;;;;;25.76;30.28;98757.44;5041323;28;20526;-70
2022/06/20 12:30:57;;;;;;;23.08;3.00;;;;;;;24.74;31.85;98767.78;5042637;28;20079;-71
2022/06/20 12:33:24;;;;;;;17.23;2.78;;;;;;;23.58;33.96;98784.03;5031559;28;20416;-70
2022/06/20 12:35:55;;;;;;;21.58;2.60;;;;;;;22.65;35.47;98788.34;5039631;28;20048;-71
2022/06/20 12:38:29;;;;;;;13.35;2.70;;;;;;;21.77;36.87;98787.63;5043452;28;20082;-70
2022/06/20 12:40:58;;;;;;;15.18;2.15;;;;;;;21.03;37.56;98776.50;5044445;28;20577;-71